Time;durP1;ratioP1;P1;durP2;ratioP2;P2;SDS_P1;SDS_P2;PMS_P1;PMS_P2;Temp;Humidity;BMP_temperature;BMP_pressure;BME280_temperature;BME280_humidity;BME280_pressure;Samples;Min_cycle;Max_cycle;Signal;HPM_P1;HPM_P2
2021/09/07 00:00:48;;;;;;;35.85;18.33;;;;;;;;;;5055554;28;20067;-75
2021/09/07 00:03:13;;;;;;;45.05;20.48;;;;;;;;;;5055480;28;20028;-76
2021/09/07 00:05:38;;;;;;;36.63;18.20;;;;;;;;;;5055556;28;20130;-75
2021/09/07 00:08:03;;;;;;;58.78;22.90;;;;;;;;;;5054583;28;20029;-75
2021/09/07 00:10:29;;;;;;;63.03;23.25;;;;;;;;;;5054915;28;20481;-75
2021/09/07 00:12:54;;;;;;;45.33;19.50;;;;;;;;;;5055373;28;20032;-75
2021/09/07 00:15:20;;;;;;;45.42;21.05;;;;;;;;;;5055259;28;20037;-75
2021/09/07 00:17:46;;;;;;;50.88;20.33;;;;;;;;;;5055097;28;20482;-75
2021/09/07 00:20:11;;;;;;;40.28;18.55;;;;;;;;;;5054048;28;20481;-76
2021/09/07 00:22:37;;;;;;;39.00;18.88;;;;;;;;;;5055116;28;20492;-75
2021/09/07 00:25:03;;;;;;;40.75;19.00;;;;;;;;;;5055194;28;20025;-74
2021/09/07 00:27:28;;;;;;;41.67;19.23;;;;;;;;;;5054967;28;20028;-75
2021/09/07 00:29:54;;;;;;;46.53;20.63;;;;;;;;;;5055043;28;20162;-75
2021/09/07 00:32:19;;;;;;;42.40;19.30;;;;;;;;;;5054565;28;20392;-75
2021/09/07 00:34:44;;;;;;;47.35;20.50;;;;;;;;;;5054908;28;20055;-74
2021/09/07 00:37:10;;;;;;;40.83;19.30;;;;;;;;;;5054685;28;20473;-75
2021/09/07 00:39:35;;;;;;;41.85;19.63;;;;;;;;;;5054545;28;20040;-75
2021/09/07 00:42:00;;;;;;;38.17;19.92;;;;;;;;;;5054746;28;20020;-75
2021/09/07 00:44:26;;;;;;;42.85;19.55;;;;;;;;;;5054701;28;20025;-75
2021/09/07 00:46:55;;;;;;;41.65;18.83;;;;;;;;;;5054721;28;20466;-75
2021/09/07 00:49:21;;;;;;;48.22;19.90;;;;;;;;;;5054615;28;20024;-75
2021/09/07 00:51:47;;;;;;;40.33;19.48;;;;;;;;;;5054531;28;20033;-76
2021/09/07 00:54:13;;;;;;;44.90;19.33;;;;;;;;;;5054669;28;20040;-74
2021/09/07 00:56:40;;;;;;;44.85;20.00;;;;;;;;;;5054316;28;20124;-75
2021/09/07 00:59:06;;;;;;;53.72;21.27;;;;;;;;;;5054472;28;20465;-75
2021/09/07 01:01:31;;;;;;;44.53;20.35;;;;;;;;;;5054364;28;20029;-75
2021/09/07 01:03:56;;;;;;;39.35;18.25;;;;;;;;;;5054364;28;20032;-75
2021/09/07 01:06:22;;;;;;;40.22;18.15;;;;;;;;;;5054258;28;20032;-74
2021/09/07 01:08:47;;;;;;;45.88;20.40;;;;;;;;;;5054246;28;20032;-75
2021/09/07 01:11:14;;;;;;;58.10;20.88;;;;;;;;;;5054322;28;20023;-74
2021/09/07 01:13:39;;;;;;;49.10;20.33;;;;;;;;;;5054134;28;20024;-74
2021/09/07 01:16:04;;;;;;;40.55;18.15;;;;;;;;;;5054112;28;20040;-75
2021/09/07 01:18:30;;;;;;;34.88;17.88;;;;;;;;;;5054035;28;20017;-75
2021/09/07 01:20:55;;;;;;;42.13;19.10;;;;;;;;;;5053758;28;20496;-75
2021/09/07 01:23:20;;;;;;;37.20;17.08;;;;;;;;;;5053966;28;20071;-75
2021/09/07 01:25:45;;;;;;;38.13;18.90;;;;;;;;;;5053980;28;20107;-75
2021/09/07 01:28:14;;;;;;;48.83;19.75;;;;;;;;;;5053588;28;20033;-74
2021/09/07 01:30:39;;;;;;;48.75;20.63;;;;;;;;;;5053867;28;20040;-75
2021/09/07 01:33:04;;;;;;;53.42;20.52;;;;;;;;;;5053524;28;20071;-75
2021/09/07 01:35:30;;;;;;;54.42;21.80;;;;;;;;;;5053446;28;20090;-76
2021/09/07 01:37:55;;;;;;;56.33;21.63;;;;;;;;;;5053650;28;20037;-76
2021/09/07 01:40:20;;;;;;;61.85;23.90;;;;;;;;;;5053791;28;20380;-75
2021/09/07 01:42:46;;;;;;;47.33;19.83;;;;;;;;;;5053334;28;20064;-74
2021/09/07 01:45:11;;;;;;;48.47;19.77;;;;;;;;;;5052941;28;20044;-75
2021/09/07 01:47:37;;;;;;;38.47;19.25;;;;;;;;;;5053602;28;20079;-75
2021/09/07 01:50:03;;;;;;;40.90;17.73;;;;;;;;;;5053296;28;20029;-75
2021/09/07 01:52:28;;;;;;;43.92;18.77;;;;;;;;;;5053430;28;20457;-76
2021/09/07 01:54:53;;;;;;;52.85;19.80;;;;;;;;;;5053502;28;20017;-75
2021/09/07 01:57:18;;;;;;;47.25;19.90;;;;;;;;;;5052274;28;20120;-75
2021/09/07 01:59:44;;;;;;;48.58;20.83;;;;;;;;;;5053032;28;20037;-75
2021/09/07 02:02:09;;;;;;;46.72;19.80;;;;;;;;;;5052994;28;20043;-75
2021/09/07 02:04:34;;;;;;;43.67;19.77;;;;;;;;;;5053301;28;20029;-75
2021/09/07 02:07:00;;;;;;;41.67;18.83;;;;;;;;;;5053411;28;20032;-74
2021/09/07 02:09:26;;;;;;;49.13;20.30;;;;;;;;;;5053254;28;20078;-75
2021/09/07 02:11:51;;;;;;;47.88;19.70;;;;;;;;;;5053256;28;20112;-75
2021/09/07 02:14:17;;;;;;;40.33;18.50;;;;;;;;;;5053280;28;20163;-77
2021/09/07 02:16:42;;;;;;;38.78;18.45;;;;;;;;;;5053159;28;20454;-75
2021/09/07 02:19:07;;;;;;;43.58;18.65;;;;;;;;;;5053038;28;20029;-75
2021/09/07 02:21:32;;;;;;;42.80;18.50;;;;;;;;;;5053102;28;20029;-75
2021/09/07 02:23:58;;;;;;;55.50;21.17;;;;;;;;;;5053321;28;20404;-75
2021/09/07 02:26:23;;;;;;;64.75;21.08;;;;;;;;;;5053067;28;20029;-75
2021/09/07 02:28:48;;;;;;;62.95;21.83;;;;;;;;;;5053133;28;20039;-75
2021/09/07 02:31:14;;;;;;;40.45;19.08;;;;;;;;;;5053193;28;20025;-75
2021/09/07 02:33:39;;;;;;;42.70;18.30;;;;;;;;;;5057108;28;20056;-75
2021/09/07 02:36:04;;;;;;;56.25;22.08;;;;;;;;;;5057088;28;20036;-75
2021/09/07 02:38:29;;;;;;;42.10;17.90;;;;;;;;;;5057143;28;20047;-75
2021/09/07 02:40:57;;;;;;;38.65;17.02;;;;;;;;;;5057103;28;20025;-75
2021/09/07 02:43:23;;;;;;;37.53;17.38;;;;;;;;;;5057003;28;20060;-75
2021/09/07 02:45:49;;;;;;;40.40;17.02;;;;;;;;;;5057028;28;20055;-75
2021/09/07 02:48:14;;;;;;;42.35;17.17;;;;;;;;;;5057133;28;20036;-75
2021/09/07 02:50:39;;;;;;;55.40;21.30;;;;;;;;;;5056933;28;20457;-75
2021/09/07 02:53:04;;;;;;;49.30;20.63;;;;;;;;;;5056577;28;20021;-75
2021/09/07 02:55:30;;;;;;;53.83;21.08;;;;;;;;;;5056727;28;20024;-75
2021/09/07 02:57:55;;;;;;;42.38;18.73;;;;;;;;;;5056714;28;20045;-75
2021/09/07 03:00:20;;;;;;;43.83;18.92;;;;;;;;;;5056744;28;20033;-75
2021/09/07 03:02:45;;;;;;;43.20;18.75;;;;;;;;;;5056652;28;20035;-75
2021/09/07 03:05:11;;;;;;;42.08;18.25;;;;;;;;;;5056744;28;20059;-74
2021/09/07 03:07:36;;;;;;;42.33;18.00;;;;;;;;;;5056511;28;20063;-75
2021/09/07 03:10:01;;;;;;;36.92;17.90;;;;;;;;;;5056644;28;20485;-74
2021/09/07 03:12:27;;;;;;;38.83;17.63;;;;;;;;;;5056484;28;20040;-75
2021/09/07 03:14:52;;;;;;;42.60;18.27;;;;;;;;;;5056435;28;20442;-75
2021/09/07 03:17:17;;;;;;;54.58;21.30;;;;;;;;;;5056375;28;20040;-75
2021/09/07 03:19:42;;;;;;;71.78;22.35;;;;;;;;;;5056631;28;20513;-75
2021/09/07 03:22:08;;;;;;;46.22;19.23;;;;;;;;;;5056303;28;20071;-75
2021/09/07 03:24:33;;;;;;;51.13;20.80;;;;;;;;;;5056194;28;20029;-75
2021/09/07 03:26:58;;;;;;;44.17;18.85;;;;;;;;;;5056289;28;20037;-75
2021/09/07 03:29:24;;;;;;;39.47;18.45;;;;;;;;;;5055825;28;20044;-75
2021/09/07 03:31:49;;;;;;;61.83;23.05;;;;;;;;;;5055939;28;20063;-74
2021/09/07 03:34:14;;;;;;;48.40;19.45;;;;;;;;;;5056113;28;20389;-75
2021/09/07 03:36:39;;;;;;;40.45;17.40;;;;;;;;;;5055934;28;20037;-75
2021/09/07 03:39:05;;;;;;;55.10;20.20;;;;;;;;;;5055999;28;20128;-75
2021/09/07 03:41:30;;;;;;;48.08;18.70;;;;;;;;;;5055654;28;20033;-75
2021/09/07 03:43:55;;;;;;;49.80;20.13;;;;;;;;;;5055727;28;20099;-75
2021/09/07 03:46:20;;;;;;;48.92;18.42;;;;;;;;;;5055889;28;20451;-76
2021/09/07 03:48:46;;;;;;;50.47;20.02;;;;;;;;;;5055724;28;20029;-76
2021/09/07 03:51:11;;;;;;;47.22;19.70;;;;;;;;;;5055581;28;20025;-75
2021/09/07 03:53:36;;;;;;;46.28;19.75;;;;;;;;;;5055656;28;20087;-75
2021/09/07 03:56:02;;;;;;;53.25;19.33;;;;;;;;;;5054870;28;20064;-75
2021/09/07 03:58:27;;;;;;;49.08;18.77;;;;;;;;;;5055599;28;20053;-74
2021/09/07 04:00:53;;;;;;;44.40;18.35;;;;;;;;;;5055645;28;20465;-75
2021/09/07 04:03:18;;;;;;;39.38;18.85;;;;;;;;;;5055612;28;20131;-75
2021/09/07 04:05:44;;;;;;;44.55;18.10;;;;;;;;;;5055168;28;20052;-75
2021/09/07 04:08:10;;;;;;;48.20;19.83;;;;;;;;;;5055313;28;20056;-75
2021/09/07 04:10:35;;;;;;;50.38;20.52;;;;;;;;;;5055624;28;20032;-75
2021/09/07 04:13:00;;;;;;;47.83;20.00;;;;;;;;;;5055542;28;20017;-75
2021/09/07 04:15:26;;;;;;;61.40;21.67;;;;;;;;;;5055259;28;20526;-74
2021/09/07 04:17:51;;;;;;;58.63;20.95;;;;;;;;;;5055266;28;20041;-75
2021/09/07 04:20:16;;;;;;;50.97;20.52;;;;;;;;;;5055224;28;20017;-75
2021/09/07 04:22:41;;;;;;;45.75;18.90;;;;;;;;;;5055253;28;20389;-74
2021/09/07 04:25:07;;;;;;;49.83;20.08;;;;;;;;;;5055178;28;20063;-74
2021/09/07 04:27:32;;;;;;;46.97;19.67;;;;;;;;;;5054825;28;20031;-75
2021/09/07 04:29:58;;;;;;;47.30;18.45;;;;;;;;;;5055090;28;20036;-75
2021/09/07 04:32:23;;;;;;;54.97;20.33;;;;;;;;;;5055118;28;20482;-74
2021/09/07 04:34:48;;;;;;;56.55;20.60;;;;;;;;;;5055014;28;20373;-76
2021/09/07 04:37:14;;;;;;;53.80;19.40;;;;;;;;;;5054846;28;20045;-75
2021/09/07 04:39:39;;;;;;;50.70;20.00;;;;;;;;;;5054938;28;20437;-74
2021/09/07 04:42:04;;;;;;;67.22;21.08;;;;;;;;;;5054899;28;20028;-75
2021/09/07 04:44:30;;;;;;;57.25;20.90;;;;;;;;;;5054742;28;20036;-75
2021/09/07 04:46:55;;;;;;;54.35;19.38;;;;;;;;;;5054823;28;20112;-75
2021/09/07 04:49:20;;;;;;;47.33;19.13;;;;;;;;;;5054706;28;20350;-75
2021/09/07 04:51:46;;;;;;;50.17;19.60;;;;;;;;;;5054631;28;20378;-75
2021/09/07 04:54:11;;;;;;;44.53;18.42;;;;;;;;;;5054224;28;20428;-75
2021/09/07 04:56:36;;;;;;;48.95;19.10;;;;;;;;;;5054278;28;20028;-75
2021/09/07 04:59:02;;;;;;;55.95;20.23;;;;;;;;;;5054332;28;20036;-75
2021/09/07 05:01:27;;;;;;;56.97;21.15;;;;;;;;;;5054465;28;20033;-75
2021/09/07 05:03:53;;;;;;;47.80;18.60;;;;;;;;;;5054578;28;20025;-75
2021/09/07 05:06:18;;;;;;;55.35;19.90;;;;;;;;;;5054440;28;20032;-75
2021/09/07 05:08:43;;;;;;;50.85;19.15;;;;;;;;;;5054290;28;20039;-75
2021/09/07 05:11:09;;;;;;;46.92;18.13;;;;;;;;;;5054311;28;20374;-75
2021/09/07 05:13:34;;;;;;;40.17;17.92;;;;;;;;;;5053894;28;20075;-75
2021/09/07 05:15:59;;;;;;;54.60;19.42;;;;;;;;;;5054078;28;20029;-75
2021/09/07 05:18:24;;;;;;;46.90;17.27;;;;;;;;;;5054103;28;20025;-75
2021/09/07 05:20:50;;;;;;;53.08;20.33;;;;;;;;;;5054106;28;20350;-75
2021/09/07 05:23:15;;;;;;;53.05;20.33;;;;;;;;;;5054089;28;20037;-75
2021/09/07 05:25:40;;;;;;;56.95;20.75;;;;;;;;;;5053930;28;20111;-75
2021/09/07 05:28:06;;;;;;;51.25;20.17;;;;;;;;;;5053625;28;20489;-75
2021/09/07 05:30:31;;;;;;;63.50;21.90;;;;;;;;;;5053851;28;20031;-74
2021/09/07 05:32:56;;;;;;;50.58;19.55;;;;;;;;;;5053556;28;20049;-75
2021/09/07 05:35:21;;;;;;;48.17;19.40;;;;;;;;;;5053880;28;20070;-75
2021/09/07 05:37:47;;;;;;;42.58;17.58;;;;;;;;;;5053406;28;20041;-75
2021/09/07 05:40:13;;;;;;;46.30;18.67;;;;;;;;;;5053734;28;20021;-75
2021/09/07 05:42:42;;;;;;;34.53;15.80;;;;;;;;;;5053633;28;20109;-75
2021/09/07 05:45:08;;;;;;;53.38;18.75;;;;;;;;;;5053419;28;20436;-75
2021/09/07 05:47:33;;;;;;;50.60;18.98;;;;;;;;;;5053654;28;20029;-75
2021/09/07 05:49:58;;;;;;;46.60;18.52;;;;;;;;;;5053584;28;20025;-75
2021/09/07 05:52:24;;;;;;;58.60;20.55;;;;;;;;;;5053674;28;20462;-76
2021/09/07 05:54:49;;;;;;;54.63;19.83;;;;;;;;;;5053487;28;20021;-76
2021/09/07 05:57:14;;;;;;;56.10;20.42;;;;;;;;;;5053385;28;20445;-76
2021/09/07 05:59:40;;;;;;;49.70;18.05;;;;;;;;;;5053465;28;20036;-75
2021/09/07 06:02:05;;;;;;;41.40;16.45;;;;;;;;;;5053454;28;20021;-75
2021/09/07 06:04:30;;;;;;;51.08;17.98;;;;;;;;;;5053296;28;20052;-74
2021/09/07 06:06:56;;;;;;;55.22;19.90;;;;;;;;;;5052592;28;20037;-75
2021/09/07 06:09:21;;;;;;;48.25;19.05;;;;;;;;;;5053059;28;20351;-75
2021/09/07 06:11:46;;;;;;;44.00;18.90;;;;;;;;;;5053395;28;20074;-74
2021/09/07 06:14:11;;;;;;;38.22;17.55;;;;;;;;;;5053278;28;20036;-75
2021/09/07 06:16:37;;;;;;;39.53;16.52;;;;;;;;;;5053090;28;20040;-75
2021/09/07 06:19:02;;;;;;;54.25;18.00;;;;;;;;;;5053298;28;20025;-76
2021/09/07 06:21:28;;;;;;;50.03;18.48;;;;;;;;;;5052877;28;20037;-75
2021/09/07 06:23:53;;;;;;;58.33;17.40;;;;;;;;;;5053199;28;20021;-76
2021/09/07 06:26:18;;;;;;;110.85;21.58;;;;;;;;;;5052823;28;20476;-76
2021/09/07 06:28:45;;;;;;;157.40;25.27;;;;;;;;;;5053272;28;20033;-75
2021/09/07 06:31:10;;;;;;;196.07;30.60;;;;;;;;;;5053149;28;20017;-76
2021/09/07 06:33:35;;;;;;;191.82;27.35;;;;;;;;;;5053279;28;20155;-75
2021/09/07 06:36:01;;;;;;;318.00;40.85;;;;;;;;;;5052644;28;20041;-76
2021/09/07 06:38:26;;;;;;;285.75;37.95;;;;;;;;;;5053033;28;20103;-76
2021/09/07 06:40:51;;;;;;;21.95;10.10;;;;;;;;;;5053128;28;20033;-77
2021/09/07 06:43:17;;;;;;;32.15;9.93;;;;;;;;;;5052783;28;20116;-76
2021/09/07 06:45:42;;;;;;;16.52;9.10;;;;;;;;;;5053009;28;20017;-76
2021/09/07 06:48:07;;;;;;;46.33;9.50;;;;;;;;;;5051848;28;20116;-75
2021/09/07 06:50:33;;;;;;;10.02;5.43;;;;;;;;;;5052966;28;20454;-76
2021/09/07 06:52:59;;;;;;;9.60;5.85;;;;;;;;;;5052963;28;20029;-76
2021/09/07 06:55:25;;;;;;;7.82;5.70;;;;;;;;;;5052643;28;20469;-76
2021/09/07 06:57:50;;;;;;;6.18;4.90;;;;;;;;;;5052539;28;20076;-76
2021/09/07 07:00:17;;;;;;;7.55;4.65;;;;;;;;;;5052554;28;20047;-77
2021/09/07 07:02:42;;;;;;;6.47;4.30;;;;;;;;;;5052559;28;20494;-76
2021/09/07 07:05:07;;;;;;;5.00;3.60;;;;;;;;;;5052952;28;20033;-76
2021/09/07 07:07:33;;;;;;;5.72;3.90;;;;;;;;;;5052790;28;20044;-77
2021/09/07 07:09:58;;;;;;;4.78;3.55;;;;;;;;;;5053127;28;20471;-76
2021/09/07 07:12:23;;;;;;;6.40;3.95;;;;;;;;;;5052871;28;20051;-76
2021/09/07 07:14:49;;;;;;;5.73;4.13;;;;;;;;;;5052770;28;20020;-76
2021/09/07 07:17:14;;;;;;;7.43;3.70;;;;;;;;;;5051302;28;20309;-76
2021/09/07 07:19:39;;;;;;;6.28;3.75;;;;;;;;;;5056205;28;20025;-76
2021/09/07 07:22:04;;;;;;;5.90;3.72;;;;;;;;;;5056355;28;20018;-77
2021/09/07 07:24:30;;;;;;;6.25;3.50;;;;;;;;;;5056567;28;20378;-76
2021/09/07 07:26:55;;;;;;;5.38;3.25;;;;;;;;;;5056299;28;20082;-77
2021/09/07 07:29:20;;;;;;;6.80;3.80;;;;;;;;;;5056213;28;20029;-77
2021/09/07 07:31:46;;;;;;;6.57;3.28;;;;;;;;;;5056084;28;20460;-77
2021/09/07 07:34:11;;;;;;;6.55;3.33;;;;;;;;;;5056164;28;20037;-75
2021/09/07 07:36:36;;;;;;;7.47;3.97;;;;;;;;;;5055997;28;20481;-75
2021/09/07 07:39:02;;;;;;;4.63;3.65;;;;;;;;;;5055746;28;20258;-75
2021/09/07 07:41:28;;;;;;;6.00;3.30;;;;;;;;;;5055996;28;20104;-75
2021/09/07 07:43:53;;;;;;;6.87;3.70;;;;;;;;;;5055952;28;20060;-76
2021/09/07 07:46:18;;;;;;;5.20;3.50;;;;;;;;;;5055968;28;20277;-76
2021/09/07 07:48:44;;;;;;;11.43;4.18;;;;;;;;;;5055908;28;20353;-76
2021/09/07 07:51:10;;;;;;;6.10;3.90;;;;;;;;;;5055823;28;20021;-75
2021/09/07 07:53:35;;;;;;;4.38;3.25;;;;;;;;;;5055754;28;20037;-75
2021/09/07 07:56:01;;;;;;;5.50;4.25;;;;;;;;;;5055389;28;20029;-75
2021/09/07 07:58:26;;;;;;;5.93;3.78;;;;;;;;;;5055764;28;20021;-76
2021/09/07 08:00:51;;;;;;;7.25;4.15;;;;;;;;;;5055673;28;20040;-76
2021/09/07 08:03:17;;;;;;;4.95;3.63;;;;;;;;;;5055564;28;20086;-75
2021/09/07 08:05:42;;;;;;;4.53;3.53;;;;;;;;;;5055593;28;20413;-75
2021/09/07 08:08:07;;;;;;;6.88;3.85;;;;;;;;;;5055560;28;20320;-76
2021/09/07 08:10:33;;;;;;;5.65;3.63;;;;;;;;;;5055079;28;20068;-75
2021/09/07 08:12:59;;;;;;;7.25;3.60;;;;;;;;;;5055526;28;20081;-75
2021/09/07 08:15:24;;;;;;;8.00;3.35;;;;;;;;;;5055373;28;20037;-76
2021/09/07 08:17:50;;;;;;;5.03;3.40;;;;;;;;;;5055318;28;20041;-76
2021/09/07 08:20:15;;;;;;;6.40;5.03;;;;;;;;;;5055313;28;20017;-75
2021/09/07 08:22:41;;;;;;;6.05;3.83;;;;;;;;;;5055244;28;20033;-76
2021/09/07 08:25:06;;;;;;;5.95;4.35;;;;;;;;;;5055455;28;20025;-76
2021/09/07 08:27:32;;;;;;;9.05;5.07;;;;;;;;;;5055112;28;20036;-76
2021/09/07 08:29:57;;;;;;;6.85;4.85;;;;;;;;;;5054154;28;20025;-76
2021/09/07 08:32:22;;;;;;;7.37;4.03;;;;;;;;;;5054856;28;20414;-76
2021/09/07 08:34:47;;;;;;;6.73;5.03;;;;;;;;;;5054741;28;20104;-77
2021/09/07 08:37:13;;;;;;;6.37;4.43;;;;;;;;;;5054860;28;20310;-76
2021/09/07 08:39:38;;;;;;;5.80;3.90;;;;;;;;;;5054901;28;20305;-76
2021/09/07 08:42:07;;;;;;;6.43;3.90;;;;;;;;;;5054816;28;20703;-76
2021/09/07 08:44:32;;;;;;;7.70;4.80;;;;;;;;;;5054794;28;20377;-76
2021/09/07 08:46:57;;;;;;;5.25;4.55;;;;;;;;;;5053472;28;20029;-76
2021/09/07 08:49:23;;;;;;;7.75;4.55;;;;;;;;;;5054425;28;20545;-76
2021/09/07 08:51:48;;;;;;;10.38;5.88;;;;;;;;;;5054685;28;20124;-76
2021/09/07 08:54:14;;;;;;;9.80;6.73;;;;;;;;;;5054398;28;20402;-76
2021/09/07 08:56:40;;;;;;;9.95;6.15;;;;;;;;;;5054451;28;20320;-76
2021/09/07 08:59:07;;;;;;;11.15;7.10;;;;;;;;;;5054246;28;20466;-76
2021/09/07 09:01:39;;;;;;;11.07;6.10;;;;;;;;;;5054120;28;20525;-77
2021/09/07 09:04:04;;;;;;;9.98;6.30;;;;;;;;;;5054515;28;20017;-76
2021/09/07 09:06:29;;;;;;;9.70;7.32;;;;;;;;;;5054236;28;20025;-76
2021/09/07 09:09:07;;;;;;;13.03;6.63;;;;;;;;;;5054542;28;20432;-77
2021/09/07 09:11:51;;;;;;;10.60;6.88;;;;;;;;;;5054178;28;20261;-76
2021/09/07 09:14:36;;;;;;;10.23;6.82;;;;;;;;;;5054176;28;20025;-77
2021/09/07 09:17:20;;;;;;;11.23;6.45;;;;;;;;;;5054295;28;20047;-76
2021/09/07 09:19:48;;;;;;;7.97;6.60;;;;;;;;;;5054323;28;20564;-76
2021/09/07 09:22:14;;;;;;;11.57;7.00;;;;;;;;;;5054112;28;20033;-76
2021/09/07 09:24:39;;;;;;;10.30;7.40;;;;;;;;;;5052748;28;20041;-76
2021/09/07 09:27:04;;;;;;;10.83;6.83;;;;;;;;;;5053896;28;20754;-76
2021/09/07 09:29:36;;;;;;;12.00;7.20;;;;;;;;;;5053986;28;20087;-76
2021/09/07 09:32:02;;;;;;;9.55;8.25;;;;;;;;;;5053677;28;20293;-76
2021/09/07 09:34:28;;;;;;;13.40;7.13;;;;;;;;;;5054165;28;20017;-76
2021/09/07 09:36:57;;;;;;;9.60;7.40;;;;;;;;;;5053718;28;20355;-76
2021/09/07 09:39:43;;;;;;;8.73;6.57;;;;;;;;;;5053887;28;20029;-76
2021/09/07 09:42:09;;;;;;;11.65;7.55;;;;;;;;;;5049096;28;20493;-76
2021/09/07 09:44:35;;;;;;;8.55;6.55;;;;;;;;;;5053745;28;20036;-76
2021/09/07 09:47:00;;;;;;;9.88;6.80;;;;;;;;;;5053232;28;20386;-76
2021/09/07 09:49:27;;;;;;;8.85;7.20;;;;;;;;;;5053399;28;20032;-76
2021/09/07 09:51:59;;;;;;;9.90;6.30;;;;;;;;;;5053624;28;20029;-76
2021/09/07 09:54:24;;;;;;;8.07;6.00;;;;;;;;;;5053651;28;20025;-76
2021/09/07 09:56:50;;;;;;;7.28;6.22;;;;;;;;;;5053522;28;20025;-76
2021/09/07 09:59:15;;;;;;;10.48;6.70;;;;;;;;;;5053630;28;20469;-76
2021/09/07 10:01:41;;;;;;;8.40;6.53;;;;;;;;;;5053482;28;20064;-77
2021/09/07 10:04:08;;;;;;;8.88;7.05;;;;;;;;;;5053806;28;20453;-76
2021/09/07 10:06:34;;;;;;;10.05;8.45;;;;;;;;;;5053515;28;20043;-77
2021/09/07 10:09:01;;;;;;;9.02;7.40;;;;;;;;;;5052161;28;20325;-76
2021/09/07 10:11:27;;;;;;;12.85;8.27;;;;;;;;;;5053289;28;20031;-76
2021/09/07 10:13:55;;;;;;;10.40;8.02;;;;;;;;;;5053343;28;20453;-76
2021/09/07 10:16:32;;;;;;;13.43;7.53;;;;;;;;;;5053313;28;20025;-76
2021/09/07 10:19:12;;;;;;;11.55;8.35;;;;;;;;;;5053287;28;20453;-77
2021/09/07 10:26:42;;;;;;;11.15;8.13;;;;;;;;;;5053082;28;20045;-76
2021/09/07 10:29:09;;;;;;;14.07;8.18;;;;;;;;;;5053168;28;20021;-76
2021/09/07 10:31:50;;;;;;;10.35;7.75;;;;;;;;;;5052838;28;20029;-76
2021/09/07 10:34:28;;;;;;;14.02;8.30;;;;;;;;;;5053105;28;20025;-77
2021/09/07 10:36:56;;;;;;;11.82;8.35;;;;;;;;;;5053023;28;20041;-76
2021/09/07 10:39:28;;;;;;;12.85;8.98;;;;;;;;;;5053161;28;20370;-77
2021/09/07 10:41:53;;;;;;;12.88;9.82;;;;;;;;;;5053088;28;20040;-77
2021/09/07 10:44:28;;;;;;;17.97;9.00;;;;;;;;;;5052962;28;20025;-78
2021/09/07 10:46:57;;;;;;;17.02;8.73;;;;;;;;;;5052671;28;20838;-77
2021/09/07 10:49:22;;;;;;;16.33;8.82;;;;;;;;;;5051730;28;20397;-77
2021/09/07 10:52:09;;;;;;;12.57;7.82;;;;;;;;;;5052964;28;20029;-77
2021/09/07 10:54:55;;;;;;;11.45;7.70;;;;;;;;;;5056240;28;20462;-77
2021/09/07 10:57:32;;;;;;;13.57;8.90;;;;;;;;;;5052304;28;20041;-77
2021/09/07 10:59:59;;;;;;;11.70;8.65;;;;;;;;;;5056824;28;20025;-77
2021/09/07 11:02:41;;;;;;;14.52;9.40;;;;;;;;;;5056757;28;20043;-77
2021/09/07 11:05:28;;;;;;;14.18;9.57;;;;;;;;;;5056778;28;20025;-77
2021/09/07 11:08:07;;;;;;;16.25;8.70;;;;;;;;;;5056613;28;20072;-76
2021/09/07 11:10:46;;;;;;;12.43;7.75;;;;;;;;;;5056573;28;20457;-76
2021/09/07 11:13:18;;;;;;;16.45;9.63;;;;;;;;;;5056253;28;20527;-77
2021/09/07 11:15:44;;;;;;;14.50;8.48;;;;;;;;;;5056496;28;20029;-77
2021/09/07 11:18:12;;;;;;;11.65;8.10;;;;;;;;;;5056503;28;20047;-77
2021/09/07 11:20:45;;;;;;;11.45;7.55;;;;;;;;;;5056354;28;20108;-77
2021/09/07 11:23:20;;;;;;;13.00;8.63;;;;;;;;;;5056370;28;20037;-76
2021/09/07 11:25:47;;;;;;;21.75;9.45;;;;;;;;;;5056362;28;20040;-77
2021/09/07 11:28:13;;;;;;;20.10;9.57;;;;;;;;;;5056225;28;20072;-77
2021/09/07 11:30:41;;;;;;;13.90;8.82;;;;;;;;;;5056179;28;20036;-75
2021/09/07 11:33:17;;;;;;;12.65;8.15;;;;;;;;;;5055746;28;20536;-77
2021/09/07 11:35:45;;;;;;;14.25;7.57;;;;;;;;;;5056133;28;20037;-77
2021/09/07 11:38:12;;;;;;;11.65;7.75;;;;;;;;;;5056085;28;20108;-77
2021/09/07 11:40:45;;;;;;;10.48;6.93;;;;;;;;;;5056064;28;20025;-77
2021/09/07 11:43:11;;;;;;;13.40;7.75;;;;;;;;;;5054803;28;20037;-76
2021/09/07 11:45:37;;;;;;;13.57;7.43;;;;;;;;;;5055931;28;20073;-77
2021/09/07 11:48:03;;;;;;;11.90;8.57;;;;;;;;;;5055901;28;20064;-77
2021/09/07 11:50:36;;;;;;;9.32;6.72;;;;;;;;;;5055881;28;20032;-77
2021/09/07 11:53:03;;;;;;;12.27;7.60;;;;;;;;;;5055881;28;20036;-77
2021/09/07 11:55:38;;;;;;;11.38;6.75;;;;;;;;;;5055756;28;20057;-77
2021/09/07 11:58:04;;;;;;;16.80;7.65;;;;;;;;;;5055732;28;20033;-77
2021/09/07 12:00:29;;;;;;;11.60;7.22;;;;;;;;;;5055670;28;20037;-77
2021/09/07 12:03:13;;;;;;;10.65;6.65;;;;;;;;;;5055705;28;20469;-77
2021/09/07 12:05:51;;;;;;;11.00;6.68;;;;;;;;;;5055514;28;20052;-77
2021/09/07 12:08:16;;;;;;;11.48;6.75;;;;;;;;;;5055439;28;20044;-76
2021/09/07 12:10:54;;;;;;;10.77;7.32;;;;;;;;;;5055483;28;20091;-77
2021/09/07 12:13:21;;;;;;;10.55;7.10;;;;;;;;;;5055663;28;20067;-77
2021/09/07 12:15:46;;;;;;;11.07;7.57;;;;;;;;;;5055489;28;20025;-76
2021/09/07 12:18:31;;;;;;;10.45;7.07;;;;;;;;;;5055317;28;20029;-76
2021/09/07 12:20:56;;;;;;;;;;;;;;;;;;5054428;28;20389;-77
2021/09/07 12:23:34;;;;;;;7.15;5.82;;;;;;;;;;5055172;28;20269;-76
2021/09/07 12:26:02;;;;;;;11.15;6.53;;;;;;;;;;5055176;28;20112;-78
2021/09/07 12:28:27;;;;;;;10.43;6.10;;;;;;;;;;5055158;28;20021;-76
2021/09/07 12:31:08;;;;;;;8.00;5.47;;;;;;;;;;5055150;28;20033;-76
2021/09/07 12:33:39;;;;;;;9.90;5.38;;;;;;;;;;5055186;28;20053;-77
2021/09/07 12:36:05;;;;;;;9.55;5.68;;;;;;;;;;5054972;28;20067;-76
2021/09/07 12:38:32;;;;;;;8.88;6.18;;;;;;;;;;5054961;28;20024;-77
2021/09/07 12:41:00;;;;;;;9.85;4.90;;;;;;;;;;5054968;28;20381;-76
2021/09/07 12:43:27;;;;;;;7.57;5.32;;;;;;;;;;5054898;28;20035;-77
2021/09/07 12:45:54;;;;;;;9.75;5.38;;;;;;;;;;5054903;28;20048;-77
2021/09/07 12:48:20;;;;;;;7.88;4.60;;;;;;;;;;5054743;28;20087;-77
2021/09/07 12:50:46;;;;;;;7.82;5.20;;;;;;;;;;5054707;28;20036;-77
2021/09/07 12:53:12;;;;;;;8.40;4.93;;;;;;;;;;5054669;28;20029;-76
2021/09/07 12:55:38;;;;;;;8.13;5.78;;;;;;;;;;5054228;28;20066;-77
2021/09/07 12:58:07;;;;;;;11.07;4.68;;;;;;;;;;5054611;28;20041;-77
2021/09/07 13:00:32;;;;;;;7.63;4.70;;;;;;;;;;5054521;28;20017;-77
2021/09/07 13:02:58;;;;;;;9.45;5.00;;;;;;;;;;5053199;28;20390;-77
2021/09/07 13:05:23;;;;;;;8.73;5.22;;;;;;;;;;5054403;28;20462;-77
2021/09/07 13:07:48;;;;;;;9.05;5.38;;;;;;;;;;5054366;28;20045;-76
2021/09/07 13:10:13;;;;;;;8.45;5.07;;;;;;;;;;5054104;28;20028;-76
2021/09/07 13:12:39;;;;;;;9.13;5.32;;;;;;;;;;5054415;28;20036;-77
2021/09/07 13:15:04;;;;;;;6.88;5.18;;;;;;;;;;5054350;28;20028;-76
2021/09/07 13:17:29;;;;;;;8.35;5.47;;;;;;;;;;5054083;28;20032;-77
2021/09/07 13:19:55;;;;;;;6.72;4.88;;;;;;;;;;5054472;28;20037;-76
2021/09/07 13:22:20;;;;;;;8.68;4.85;;;;;;;;;;5054050;28;20021;-77
2021/09/07 13:24:45;;;;;;;8.23;3.97;;;;;;;;;;5054107;28;20025;-77
2021/09/07 13:27:10;;;;;;;6.72;4.82;;;;;;;;;;5053943;28;20120;-76
2021/09/07 13:29:36;;;;;;;6.18;4.00;;;;;;;;;;5053978;28;20025;-76
2021/09/07 13:32:01;;;;;;;10.13;4.50;;;;;;;;;;5053602;28;20037;-78
2021/09/07 13:34:26;;;;;;;7.65;4.93;;;;;;;;;;5054019;28;20457;-76
2021/09/07 13:36:51;;;;;;;6.73;4.60;;;;;;;;;;5053783;28;20017;-76
2021/09/07 13:39:17;;;;;;;9.95;4.20;;;;;;;;;;5053869;28;20266;-77
2021/09/07 13:41:44;;;;;;;5.55;3.90;;;;;;;;;;5053784;28;20078;-77
2021/09/07 13:44:09;;;;;;;11.43;4.60;;;;;;;;;;5053785;28;20373;-77
2021/09/07 13:46:34;;;;;;;11.68;4.72;;;;;;;;;;5053636;28;20037;-77
2021/09/07 13:48:59;;;;;;;6.57;4.30;;;;;;;;;;5053671;28;20111;-77
2021/09/07 13:51:24;;;;;;;9.33;4.73;;;;;;;;;;5053367;28;20017;-76
2021/09/07 13:53:51;;;;;;;8.88;3.90;;;;;;;;;;5053523;28;20258;-77
2021/09/07 13:56:16;;;;;;;5.35;3.70;;;;;;;;;;5053597;28;20519;-76
2021/09/07 13:58:42;;;;;;;5.53;4.22;;;;;;;;;;5053478;28;20048;-77
2021/09/07 14:01:07;;;;;;;12.43;4.15;;;;;;;;;;5053512;28;20139;-77
2021/09/07 14:03:32;;;;;;;4.85;3.63;;;;;;;;;;5053478;28;20397;-77
2021/09/07 14:05:57;;;;;;;8.07;3.93;;;;;;;;;;5053104;28;20057;-77
2021/09/07 14:08:23;;;;;;;5.82;3.53;;;;;;;;;;5053066;28;20265;-77
2021/09/07 14:10:48;;;;;;;6.53;4.07;;;;;;;;;;5053467;28;20047;-76
2021/09/07 14:13:13;;;;;;;7.53;3.92;;;;;;;;;;5053453;28;20078;-76
2021/09/07 14:15:39;;;;;;;7.75;4.03;;;;;;;;;;5053385;28;20061;-77
2021/09/07 14:18:04;;;;;;;6.47;4.32;;;;;;;;;;5053245;28;20057;-77
2021/09/07 14:20:29;;;;;;;7.47;4.63;;;;;;;;;;5052910;28;20037;-76
2021/09/07 14:22:54;;;;;;;9.65;4.50;;;;;;;;;;5053554;28;20348;-77
2021/09/07 14:25:20;;;;;;;6.40;3.78;;;;;;;;;;5053179;28;20103;-77
2021/09/07 14:27:45;;;;;;;6.07;4.10;;;;;;;;;;5053845;28;20112;-77
2021/09/07 14:30:11;;;;;;;7.10;4.07;;;;;;;;;;5057369;28;20021;-76